Meteo Giornale » Osservazioni meteo Stati Uniti (USA) » Tacoma-McChord
ore: 11:20 - Osservazioni Meteo Tacoma-McChord
Lat. 47° 9' N Lon. 122° 29' W Alt. 98 metri s.l.m.
20 °C
Coperto
Temp. 24 Ore
10 °C
25 °C
Sud-Ovest
22.2 Km/h
Dew point 13 °C
Umidità 64 %
Visibilità 10 Km
Il sole sorge alle ore 06:29
Il sole tramonta alle ore 19:49
| Data e Ora | Cielo e Fenomeni | T °C | DP °C | Um. % | Pres. hPa | Vis. km | Vento km/h | |
|---|---|---|---|---|---|---|---|---|
| Oggi h: 11:20 | Coperto | 20 | 13 | 64 | 1010 | 10 | SO 22.2 | |
| Oggi h: 11:15 | Coperto | 20 | 13 | 64 | 1010 | 10 | SO 18.5 | |
| Oggi h: 10:55 | Coperto | 19 | 13 | 68 | 1010 | 10 | SO 16.7 | |
| Oggi h: 09:55 | Coperto | 20 | 13 | 64 | 1009 | 10 | O/SO 18.5 | |
| Oggi h: 09:35 | Molto Nuvoloso | 19 | 12 | 63 | 1010 | 10 | O/SO 16.7 | |
| Oggi h: 08:55 | Sereno | 17 | 13 | 77 | 1010 | 10 | SO 7.4 | |
| Oggi h: 07:55 | Sereno | 14 | 12 | 87 | 1010 | 10 | N 5.5 | |
| Oggi h: 06:55 | Poco Nuvoloso | 10 | 9 | 93 | 1009 | 10 | N 0 | |
| Oggi h: 05:55 | Nuvoloso | 11 | 9 | 87 | 1009 | 10 | N 0 | |
| Oggi h: 04:55 | Molto Nuvoloso | 12 | 10 | 87 | 1009 | 10 | N 0 | |
| Oggi h: 03:55 | Molto Nuvoloso | 11 | 9 | 87 | 1009 | 10 | N 5.5 | |
| Oggi h: 02:55 | Sereno | 12 | 10 | 87 | 1008 | 10 | N 0 | |
| Oggi h: 01:55 | Sereno | 12 | 10 | 87 | 1008 | 10 | N 5.5 | |
| Oggi h: 00:55 | Sereno | 13 | 10 | 81 | 1008 | 10 | N 0 | |
| Ieri h: 23:55 | Sereno | 15 | 12 | 82 | 1008 | 10 | N 0 | |
| Ieri h: 22:55 | Sereno | 15 | 10 | 72 | 1008 | 10 | N 0 | |
| Ieri h: 21:55 | Sereno | 19 | 11 | 59 | 1008 | 10 | N 0 | |
| Ieri h: 20:55 | Sereno | 20 | 11 | 56 | 1008 | 10 | NE 9.3 | |
| Ieri h: 19:55 | Sereno | 21 | 10 | 49 | 1007 | 10 | N 5.5 | |
| Ieri h: 18:55 | Poco Nuvoloso | 24 | 10 | 41 | 1007 | 10 | N/NE 9.3 | |
| Ieri h: 17:55 | Molto Nuvoloso | 25 | 10 | 38 | 1008 | 10 | NE 11.1 | |
| Ieri h: 16:55 | Nuvoloso | 25 | 10 | 38 | 1008 | 10 | E/NE 11.1 | |
| Ieri h: 15:55 | Sereno | 25 | 10 | 38 | 1008 | 10 | NE 11.1 | |
| Ieri h: 14:55 | Sereno | 24 | 11 | 43 | 1009 | 10 | N 7.4 | |
| Ieri h: 13:55 | Sereno | 23 | 12 | 49 | 1010 | 10 | N 14.8 | |
| Ieri h: 12:55 | Sereno | 23 | 11 | 46 | 1010 | 10 | N 11.1 | |
| Ieri h: 11:55 | Sereno | 22 | 11 | 49 | 1011 | 10 | N 16.7 | |



